Ofahoma, Mississippi
Current Conditions -  °F | °C
As of 5:54 AM on Monday 22 Dec 2014 (Local Time) from KJAN Reporting Station
Haze Haze  
Wind Chill: 53°   Ceiling: 300
Heat Index: 53°   Visibility: 4mi
Dew Point: 51°   Wind: 6mph
Humidity: 93%   Direction: 140°SE
Pressure: 29.86"   Gusts: NA
Location:  32.8169°N, 89.5441°W
Report Text: KJAN 221154Z 14005KT 4SM BR OVC003 12/11 A2986 RMK AO2 RAB29E46 SLP110 P0000 60000 T01170106 10117 20106 56016
Loading
Personal Weather Stations






























Interactive Weather Map New forecast layout! Learn more

10-Day Weather Forecast

Advertisements
Track Severe Weather on mobile